Farmington, Mississippi
Current Conditions -  °F | °C
As of 2:35 PM on Monday 22 Dec 2014 (Local Time) from KCRX Reporting Station
Overcast Overcast  
Wind Chill: 54°   Ceiling: 600
Heat Index: 54°   Visibility: 9mi
Dew Point: 52°   Wind: 9mph
Humidity: 94%   Direction: 150°SSE
Pressure: 29.7"   Gusts: NA
Location:  34.9238°N, 88.6234°W
Report Text: KCRX 222035Z AUTO 15008KT 9SM OVC006 12/11 A2970 RMK AO2
Loading
Personal Weather Stations






























Interactive Weather Map New forecast layout! Learn more

10-Day Weather Forecast

Advertisements
Track Severe Weather on mobile